Pagrindinis puslapis
METAR-TAF:

METAR-TAF

Oro uostai :

Guilin, Kinija

platuma: 25-20N, ilguma: 110-18E, Aukštis: 166 m

Dabartinis oras

Ataskaita buvo paskelbta 44 minutes, ne 07:00 UTC
Vėjas 2 kt nuo kintamojo kryptimis
Temperatūra 15°C
Drėgmė 77%
Slėgis 1015 hPa
Matomumas: 8000 m
Išsisklaidę debesys ne aukštis 4000 ft
Apsiniaukę ne aukštis 6000 ft

METAR: ZGKL 010700Z VRB01MPS 8000 SCT040 OVC060 15/11 Q1015 NOSIG

Laikas: 15:44 (07:44 UTC)

Prognozė

Ataskaita buvo paskelbta 4 valandos ir 28 minutes, ne 03:16 UTC
Prognozė galioja nuo 01 metu 06 UTC su 02 metu 06 UTC
Vėjas 6 kt iš Šiaurės Rytų
Matomumas: 6000 m
Išsisklaidę debesys ne aukštis 3000 ft
Apsiniaukę ne aukštis 6000 ft
Tapsmas
nuo 01 metu 15 UTC su 01 metu 16 UTC
Matomumas: 2800 m
lietus, rūkana

TAF: ZGKL 010316Z 0106/0206 05003MPS 6000 SCT030 OVC060 TX18/0107Z TN13/0122Z BECMG 0115/0116 2800 -RA BR

Orai ataskaitas ir orų prognozės (METAR, TAF).

turimą stotys yra geltonos ir raudonos taškus žemėlapyje.

Perkelti pele per norėdami pamatyti stoties vardą.

Tada spustelėkite, norėdami matyti oro stebėjimo ir prognozės.

Norėdami pakeisti žemėlapį: spustelėkite ant žalios mygtukų su juodo kryžiaus žemyn,; žalią mygtuką su brūkšneliu, jei norite nutolinti; arba žalių rodyklių gretimoms žemėlapius.


METAR-TAF: